Ismailia, Egypt
Current Conditions -  °F | °C
As of 8:00 PM on Monday 26 Jan 2015 (Local Time) from HEPS Reporting Station
Clear Clear  
Wind Chill: 63°   Ceiling: Unl
Heat Index: 63°   Visibility: 6mi
Dew Point: 57°   Wind: 9mph
Humidity: 82%   Direction: 40°NE
Pressure: 30.12"   Gusts: NA
Location:  30.59°N, 32.26°E
Report Text: HEPS 261800Z 04008KT CAVOK 17/14 Q1020 NOSIG
Loading
Personal Weather Stations






























Interactive Weather Map New forecast layout! Learn more

10-Day Weather Forecast

Advertisements
Track Severe Weather on mobile